Time;durP1;ratioP1;P1;durP2;ratioP2;P2;SDS_P1;SDS_P2;PMS_P1;PMS_P2;Temp;Humidity;BMP_temperature;BMP_pressure;BME280_temperature;BME280_humidity;BME280_pressure;Samples;Min_cycle;Max_cycle;Signal;HPM_P1;HPM_P2
2022/07/26 00:02:14;;;;;;;0.47;0.40;;;22.30;92.80;;;;;;5073000;28;20941;-80
2022/07/26 00:04:41;;;;;;;0.40;0.40;;;22.30;93.00;;;;;;5073302;28;20451;-80
2022/07/26 00:07:08;;;;;;;0.40;0.40;;;22.30;93.10;;;;;;5072983;28;20498;-80
2022/07/26 00:09:34;;;;;;;0.50;0.50;;;22.20;93.10;;;;;;5073090;28;20503;-80
2022/07/26 00:12:01;;;;;;;0.50;0.47;;;22.30;93.40;;;;;;5077472;28;20444;-80
2022/07/26 00:14:29;;;;;;;0.40;0.40;;;22.30;93.60;;;;;;5077009;28;20454;-80
2022/07/26 00:16:56;;;;;;;1.10;0.40;;;22.30;93.50;;;;;;5076974;28;20451;-80
2022/07/26 00:19:23;;;;;;;0.60;0.40;;;22.30;93.60;;;;;;5076872;28;20495;-80
2022/07/26 00:22:32;;;;;;;2.40;0.50;;;22.30;93.50;;;;;;5076872;28;20964;-82
2022/07/26 00:24:38;;;;;;;1.43;0.60;;;22.30;93.70;;;;;;5076670;28;20462;-82
2022/07/26 00:27:05;;;;;;;0.40;0.40;;;22.30;94.00;;;;;;5077084;28;20879;-82
2022/07/26 00:29:33;;;;;;;0.50;0.50;;;22.40;93.80;;;;;;5076667;28;20488;-82
2022/07/26 00:32:00;;;;;;;0.43;0.43;;;22.40;93.90;;;;;;5077214;28;20456;-82
2022/07/26 00:34:26;;;;;;;0.60;0.40;;;22.30;94.30;;;;;;5076721;28;20436;-82
2022/07/26 00:36:53;;;;;;;1.67;0.50;;;22.40;94.30;;;;;;5076875;28;20448;-82
2022/07/26 00:39:20;;;;;;;0.50;0.40;;;22.40;94.20;;;;;;5076811;28;20475;-82
2022/07/26 00:41:46;;;;;;;0.57;0.50;;;22.40;94.50;;;;;;5076359;28;20476;-82
2022/07/26 00:44:13;;;;;;;0.53;0.40;;;22.40;94.60;;;;;;5076427;28;20813;-81
2022/07/26 00:46:43;;;;;;;0.73;0.50;;;22.40;95.00;;;;;;5076688;28;20456;-82
2022/07/26 00:49:09;;;;;;;0.40;0.40;;;22.40;94.60;;;;;;5076433;28;20630;-82
2022/07/26 00:51:36;;;;;;;0.53;0.37;;;22.40;94.70;;;;;;5076775;28;20456;-82
2022/07/26 00:54:03;;;;;;;0.40;0.40;;;22.40;94.80;;;;;;5076260;28;20451;-82
2022/07/26 00:56:31;;;;;;;0.37;0.33;;;22.40;94.80;;;;;;5076208;28;20455;-80
2022/07/26 00:58:58;;;;;;;0.60;0.50;;;22.40;94.90;;;;;;5076432;28;20464;-80
2022/07/26 01:01:25;;;;;;;0.50;0.40;;;22.40;95.00;;;;;;5076407;28;20444;-80
2022/07/26 01:03:54;;;;;;;0.50;0.50;;;22.40;95.40;;;;;;5076422;28;20456;-80
2022/07/26 01:06:23;;;;;;;0.77;0.50;;;22.40;95.20;;;;;;5076336;28;20444;-80
2022/07/26 01:08:50;;;;;;;2.63;0.50;;;22.40;95.30;;;;;;5076175;28;20888;-80
2022/07/26 01:11:16;;;;;;;0.90;0.50;;;22.40;95.20;;;;;;5076257;28;20289;-80
2022/07/26 01:13:47;;;;;;;0.60;0.50;;;22.40;95.30;;;;;;5075878;28;21005;-80
2022/07/26 01:16:13;;;;;;;0.67;0.53;;;22.40;95.20;;;;;;5076451;28;20498;-80
2022/07/26 01:18:40;;;;;;;0.40;0.37;;;22.30;95.40;;;;;;5076123;28;20467;-81
2022/07/26 01:21:10;;;;;;;0.40;0.40;;;22.30;95.60;;;;;;5075463;28;20962;-82
2022/07/26 01:23:38;;;;;;;1.43;0.50;;;22.30;95.70;;;;;;5075242;28;20284;-81
2022/07/26 01:26:05;;;;;;;0.37;0.30;;;22.30;95.80;;;;;;5075991;28;20455;-81
2022/07/26 01:28:36;;;;;;;0.50;0.50;;;22.30;96.00;;;;;;5075767;28;20484;-82
2022/07/26 01:31:03;;;;;;;1.27;0.47;;;22.30;96.20;;;;;;5075902;28;20472;-82
2022/07/26 01:33:30;;;;;;;1.27;0.40;;;22.20;96.40;;;;;;5075705;28;20479;-82
2022/07/26 01:35:56;;;;;;;2.73;0.50;;;22.30;96.60;;;;;;5075789;28;20448;-82
2022/07/26 01:38:23;;;;;;;0.40;0.40;;;22.30;96.70;;;;;;5075702;28;20535;-82
2022/07/26 01:40:51;;;;;;;0.70;0.57;;;22.20;97.10;;;;;;5075409;28;20812;-82
2022/07/26 01:43:18;;;;;;;0.50;0.40;;;22.10;97.10;;;;;;5075652;28;20456;-81
2022/07/26 01:45:45;;;;;;;0.40;0.40;;;22.20;97.60;;;;;;5075749;28;20452;-84
2022/07/26 01:48:11;;;;;;;0.40;0.30;;;22.10;97.80;;;;;;5075551;28;20484;-84
2022/07/26 01:50:38;;;;;;;0.40;0.40;;;22.10;97.90;;;;;;5075234;28;20997;-85
2022/07/26 01:53:05;;;;;;;0.40;0.30;;;22.00;98.20;;;;;;5075580;28;20453;-84
2022/07/26 01:55:32;;;;;;;0.40;0.40;;;22.00;97.90;;;;;;5075192;28;20947;-84
2022/07/26 01:58:00;;;;;;;0.50;0.43;;;22.00;98.00;;;;;;5075477;28;20440;-84
2022/07/26 02:00:27;;;;;;;0.50;0.50;;;22.00;97.80;;;;;;5075050;28;20517;-84
2022/07/26 02:02:54;;;;;;;0.47;0.40;;;22.00;97.90;;;;;;5075393;28;20444;-84
2022/07/26 02:05:21;;;;;;;0.50;0.50;;;22.00;97.80;;;;;;5075292;28;20444;-84
2022/07/26 02:07:48;;;;;;;0.77;0.40;;;22.00;97.70;;;;;;5075239;28;20444;-84
2022/07/26 02:10:15;;;;;;;0.40;0.40;;;21.90;97.70;;;;;;5075126;28;20483;-84
2022/07/26 02:12:42;;;;;;;0.70;0.40;;;21.90;98.30;;;;;;5075151;28;20810;-84
2022/07/26 02:15:11;;;;;;;0.50;0.40;;;21.90;98.20;;;;;;5074877;28;20448;-84
2022/07/26 02:17:38;;;;;;;0.60;0.50;;;21.80;98.10;;;;;;5074751;28;20443;-79
2022/07/26 02:20:06;;;;;;;0.50;0.30;;;21.80;98.30;;;;;;5074594;28;20990;-79
2022/07/26 02:22:33;;;;;;;0.90;0.40;;;21.80;98.40;;;;;;5074931;28;20444;-79
2022/07/26 02:25:00;;;;;;;0.40;0.40;;;21.80;98.40;;;;;;5074881;28;20452;-79
2022/07/26 02:27:27;;;;;;;1.23;0.40;;;21.80;98.50;;;;;;5074933;28;20448;-79
2022/07/26 02:29:53;;;;;;;0.93;0.80;;;21.80;99.00;;;;;;5074645;28;20484;-79
2022/07/26 02:32:21;;;;;;;0.50;0.50;;;21.70;98.90;;;;;;5074735;28;20440;-79
2022/07/26 02:34:48;;;;;;;0.40;0.40;;;21.70;99.00;;;;;;5074505;28;20810;-79
2022/07/26 02:37:15;;;;;;;0.50;0.50;;;21.70;99.50;;;;;;5074624;28;20456;-79
2022/07/26 02:39:41;;;;;;;0.50;0.33;;;21.70;99.60;;;;;;5074624;28;20464;-79
2022/07/26 02:42:08;;;;;;;0.87;0.40;;;21.70;99.90;;;;;;5074499;28;20448;-79
2022/07/26 02:44:35;;;;;;;0.40;0.40;;;21.70;99.90;;;;;;5074501;28;20448;-79
2022/07/26 02:47:02;;;;;;;0.50;0.37;;;21.60;99.90;;;;;;5074411;28;20452;-79
2022/07/26 02:49:30;;;;;;;0.40;0.40;;;21.60;99.90;;;;;;5074237;28;20495;-79
2022/07/26 02:51:56;;;;;;;0.40;0.37;;;21.60;99.90;;;;;;5074331;28;20813;-79
2022/07/26 02:54:23;;;;;;;0.40;0.30;;;21.60;99.90;;;;;;5074283;28;20436;-79
2022/07/26 02:56:50;;;;;;;0.40;0.40;;;21.60;99.90;;;;;;5073908;28;20932;-79
2022/07/26 02:59:16;;;;;;;0.40;0.40;;;21.60;99.90;;;;;;5074075;28;20490;-79
2022/07/26 03:01:43;;;;;;;0.73;0.40;;;21.60;99.90;;;;;;5074424;28;20436;-78
2022/07/26 03:04:10;;;;;;;0.40;0.40;;;21.60;99.90;;;;;;5074113;28;20848;-79
2022/07/26 03:06:38;;;;;;;0.50;0.43;;;21.60;99.90;;;;;;5074270;28;20459;-79
2022/07/26 03:09:05;;;;;;;0.60;0.50;;;21.60;99.90;;;;;;5074095;28;20492;-79
2022/07/26 03:11:31;;;;;;;0.30;0.30;;;21.50;99.90;;;;;;5074235;28;20448;-79
2022/07/26 03:13:58;;;;;;;0.63;0.53;;;21.50;99.90;;;;;;5073896;28;20459;-79
2022/07/26 03:16:25;;;;;;;0.40;0.40;;;21.50;99.90;;;;;;5073900;28;20529;-79
2022/07/26 03:18:52;;;;;;;0.90;0.50;;;21.50;99.90;;;;;;5074025;28;20465;-79
2022/07/26 03:21:19;;;;;;;0.40;0.40;;;21.50;99.90;;;;;;5073813;28;20476;-79
2022/07/26 03:23:47;;;;;;;0.40;0.40;;;21.50;99.90;;;;;;5073777;28;20444;-79
2022/07/26 03:26:14;;;;;;;1.50;0.50;;;21.40;99.90;;;;;;5073756;28;20444;-79
2022/07/26 03:28:41;;;;;;;1.13;0.53;;;21.40;99.90;;;;;;5073579;28;20467;-79
2022/07/26 03:31:08;;;;;;;0.73;0.50;;;21.40;99.90;;;;;;5073649;28;20448;-79
2022/07/26 03:33:34;;;;;;;0.43;0.40;;;21.40;99.90;;;;;;5073689;28;20501;-79
2022/07/26 03:36:01;;;;;;;0.63;0.40;;;21.30;99.90;;;;;;5073644;28;20527;-79
2022/07/26 03:38:28;;;;;;;0.53;0.50;;;21.30;99.90;;;;;;5073495;28;20494;-79
2022/07/26 03:40:56;;;;;;;0.40;0.40;;;21.30;99.90;;;;;;5073348;28;20472;-79
2022/07/26 03:43:23;;;;;;;0.50;0.40;;;21.20;99.90;;;;;;5073198;28;21009;-78
2022/07/26 03:45:49;;;;;;;0.70;0.50;;;21.20;99.90;;;;;;5072906;28;20452;-79
2022/07/26 03:48:16;;;;;;;0.50;0.50;;;21.10;99.90;;;;;;5073471;28;20452;-79
2022/07/26 03:50:43;;;;;;;0.50;0.40;;;21.00;99.90;;;;;;5073405;28;20472;-79
2022/07/26 03:53:09;;;;;;;0.50;0.50;;;21.00;99.90;;;;;;5073077;28;20447;-79
2022/07/26 03:58:22;;;;;;;0.67;0.33;;;20.90;99.90;;;;;;5073436;28;20408;-79
2022/07/26 04:00:48;;;;;;;0.57;0.47;;;20.90;99.90;;;;;;5073342;28;20436;-79
2022/07/26 04:03:15;;;;;;;0.87;0.60;;;20.80;99.90;;;;;;5073320;28;20611;-79
2022/07/26 04:05:42;;;;;;;0.43;0.40;;;20.70;99.90;;;;;;5073331;28;20436;-79
2022/07/26 04:08:08;;;;;;;0.50;0.40;;;20.70;99.90;;;;;;5073285;28;20466;-79
2022/07/26 04:10:35;;;;;;;0.73;0.60;;;20.60;99.90;;;;;;5073147;28;20614;-79
2022/07/26 04:13:02;;;;;;;0.50;0.47;;;20.60;99.90;;;;;;5073056;28;20449;-78
2022/07/26 04:15:30;;;;;;;0.50;0.50;;;20.50;99.90;;;;;;5072929;28;20943;-79
2022/07/26 04:17:56;;;;;;;0.60;0.60;;;20.50;99.90;;;;;;5073197;28;20456;-79
2022/07/26 04:20:23;;;;;;;1.13;0.70;;;20.50;99.90;;;;;;5073135;28;20460;-79
2022/07/26 04:22:50;;;;;;;0.70;0.50;;;20.50;99.90;;;;;;5073318;28;20452;-78
2022/07/26 04:25:17;;;;;;;0.40;0.40;;;20.40;99.90;;;;;;5072792;28;20451;-79
2022/07/26 04:27:44;;;;;;;0.50;0.47;;;20.40;99.90;;;;;;5073110;28;20494;-79
2022/07/26 04:30:11;;;;;;;0.90;0.50;;;20.30;99.90;;;;;;5072630;28;20879;-78
2022/07/26 04:32:39;;;;;;;0.63;0.60;;;20.30;99.90;;;;;;5073064;28;20444;-78
2022/07/26 04:35:06;;;;;;;0.70;0.47;;;20.30;99.90;;;;;;5073048;28;20448;-78
2022/07/26 04:37:38;;;;;;;0.40;0.40;;;20.30;99.90;;;;;;5073011;28;20455;-79
2022/07/26 04:40:06;;;;;;;0.53;0.53;;;20.20;99.90;;;;;;5072515;28;20961;-78
2022/07/26 04:42:33;;;;;;;0.70;0.40;;;20.20;99.90;;;;;;5072980;28;20892;-78
2022/07/26 04:45:00;;;;;;;0.97;0.80;;;20.20;99.90;;;;;;5072923;28;20440;-78
2022/07/26 04:47:27;;;;;;;0.70;0.47;;;20.20;99.90;;;;;;5072606;28;20974;-78
2022/07/26 04:49:55;;;;;;;0.40;0.40;;;20.20;99.90;;;;;;5072404;28;20999;-79
2022/07/26 04:52:21;;;;;;;0.40;0.40;;;20.20;99.90;;;;;;5072812;28;20459;-79
2022/07/26 04:54:48;;;;;;;0.73;0.50;;;20.20;99.90;;;;;;5072833;28;20451;-79
2022/07/26 04:57:15;;;;;;;0.80;0.70;;;20.20;99.90;;;;;;5075100;28;20444;-79
2022/07/26 04:59:41;;;;;;;1.03;0.40;;;20.30;99.90;;;;;;5076387;28;20457;-78
2022/07/26 05:02:08;;;;;;;1.20;0.60;;;20.30;99.90;;;;;;5076467;28;20451;-78
2022/07/26 05:04:35;;;;;;;0.80;0.70;;;20.30;99.90;;;;;;5076413;28;20444;-79
2022/07/26 05:07:03;;;;;;;1.37;0.57;;;20.40;99.90;;;;;;5075992;28;20940;-79
2022/07/26 05:09:30;;;;;;;0.60;0.60;;;20.40;99.90;;;;;;5076176;28;20484;-78
2022/07/26 05:11:57;;;;;;;1.33;0.77;;;20.40;99.90;;;;;;5076034;28;20437;-79
2022/07/26 05:14:24;;;;;;;0.60;0.50;;;20.50;99.90;;;;;;5076243;28;20452;-79
2022/07/26 05:16:50;;;;;;;0.93;0.67;;;20.60;99.90;;;;;;5076221;28;20441;-79
2022/07/26 05:19:17;;;;;;;0.70;0.63;;;20.60;99.90;;;;;;5076027;28;20475;-78
2022/07/26 05:21:44;;;;;;;0.40;0.40;;;20.60;99.90;;;;;;5075791;28;20842;-79
2022/07/26 05:24:12;;;;;;;0.70;0.50;;;20.60;99.90;;;;;;5076050;28;20475;-78
2022/07/26 05:26:38;;;;;;;0.40;0.40;;;20.70;99.90;;;;;;5075987;28;20448;-79
2022/07/26 05:29:05;;;;;;;0.50;0.50;;;20.70;99.90;;;;;;5075853;28;20456;-79
2022/07/26 05:31:32;;;;;;;1.43;0.77;;;20.70;99.90;;;;;;5075897;28;20459;-79
2022/07/26 05:33:59;;;;;;;0.43;0.43;;;20.80;99.90;;;;;;5075882;28;20441;-79
2022/07/26 05:36:25;;;;;;;0.43;0.43;;;20.90;99.90;;;;;;5075803;28;20463;-78
2022/07/26 05:38:52;;;;;;;0.50;0.50;;;20.90;99.90;;;;;;5076107;28;20479;-79
2022/07/26 05:41:20;;;;;;;0.60;0.43;;;21.00;99.90;;;;;;5075356;28;20475;-79
2022/07/26 05:43:47;;;;;;;0.67;0.60;;;21.00;99.90;;;;;;5075737;28;20456;-79
2022/07/26 05:46:15;;;;;;;0.70;0.70;;;20.90;99.90;;;;;;5075675;28;20444;-78
2022/07/26 05:48:42;;;;;;;0.60;0.60;;;21.00;99.90;;;;;;5075517;28;20496;-79
2022/07/26 05:51:09;;;;;;;0.80;0.67;;;21.00;99.90;;;;;;5075433;28;20491;-78
2022/07/26 05:53:36;;;;;;;0.80;0.60;;;21.00;99.90;;;;;;5075447;28;20865;-78
2022/07/26 05:56:03;;;;;;;0.63;0.60;;;21.00;99.90;;;;;;5075456;28;20455;-78
2022/07/26 05:58:31;;;;;;;0.73;0.63;;;21.10;99.90;;;;;;5075018;28;20498;-79
2022/07/26 06:00:58;;;;;;;1.17;0.70;;;21.20;99.90;;;;;;5075373;28;20849;-79
2022/07/26 06:03:25;;;;;;;0.60;0.50;;;21.20;99.90;;;;;;5075328;28;20452;-78
2022/07/26 06:05:54;;;;;;;0.70;0.60;;;21.30;99.90;;;;;;5075267;28;20456;-79
2022/07/26 06:08:21;;;;;;;0.53;0.53;;;21.40;99.90;;;;;;5074565;28;20449;-79
2022/07/26 06:10:48;;;;;;;0.90;0.70;;;21.50;99.90;;;;;;5075437;28;20465;-79
2022/07/26 06:13:16;;;;;;;1.20;0.83;;;21.60;99.90;;;;;;5075137;28;20542;-79
2022/07/26 06:15:44;;;;;;;0.77;0.73;;;21.70;99.90;;;;;;5075327;28;20451;-79
2022/07/26 06:18:11;;;;;;;0.90;0.60;;;21.80;99.90;;;;;;5075010;28;20445;-79
2022/07/26 06:20:38;;;;;;;0.60;0.60;;;21.90;99.90;;;;;;5075173;28;20510;-79
2022/07/26 06:23:05;;;;;;;0.60;0.60;;;22.10;99.90;;;;;;5074937;28;20448;-78
2022/07/26 06:25:32;;;;;;;0.40;0.40;;;22.20;99.90;;;;;;5074897;28;20444;-79
2022/07/26 06:27:59;;;;;;;0.57;0.57;;;22.40;99.90;;;;;;5074862;28;20445;-79
2022/07/26 06:30:26;;;;;;;1.00;0.60;;;22.50;99.90;;;;;;5074677;28;20476;-78
2022/07/26 06:32:54;;;;;;;0.60;0.60;;;22.70;99.90;;;;;;5074407;28;20797;-79
2022/07/26 06:35:21;;;;;;;0.73;0.50;;;22.70;99.90;;;;;;5074674;28;20448;-79
2022/07/26 06:37:48;;;;;;;1.00;0.60;;;22.80;99.90;;;;;;5074604;28;20526;-78
2022/07/26 06:40:14;;;;;;;0.77;0.77;;;22.90;99.90;;;;;;5074323;28;20234;-79
2022/07/26 06:42:41;;;;;;;1.03;1.03;;;22.90;99.90;;;;;;5074514;28;20281;-78
2022/07/26 06:45:09;;;;;;;1.27;0.50;;;23.10;99.90;;;;;;5074490;28;20229;-78
2022/07/26 06:47:35;;;;;;;0.67;0.47;;;23.20;99.90;;;;;;5074450;28;20202;-78
2022/07/26 06:50:04;;;;;;;2.00;0.57;;;23.30;99.90;;;;;;5074551;28;20218;-79
2022/07/26 06:52:32;;;;;;;0.40;0.40;;;23.50;99.90;;;;;;5074328;28;20210;-79
2022/07/26 06:54:59;;;;;;;0.50;0.40;;;23.60;99.90;;;;;;5074294;28;20655;-78
2022/07/26 06:57:25;;;;;;;0.53;0.40;;;23.70;99.90;;;;;;5074234;28;20198;-78
2022/07/26 06:59:53;;;;;;;0.40;0.40;;;23.80;99.90;;;;;;5073857;28;20231;-79
2022/07/26 07:02:19;;;;;;;0.40;0.40;;;23.90;99.90;;;;;;5074193;28;20190;-79
2022/07/26 07:04:46;;;;;;;1.35;0.60;;;24.00;99.90;;;;;;5074317;28;20210;-79
2022/07/26 07:07:14;;;;;;;0.88;0.40;;;23.90;98.80;;;;;;5074080;28;20205;-78
2022/07/26 07:09:41;;;;;;;0.75;0.63;;;24.10;98.50;;;;;;5073853;28;20226;-79
2022/07/26 07:12:08;;;;;;;2.90;0.60;;;24.20;98.30;;;;;;5073889;28;20209;-79
2022/07/26 07:14:35;;;;;;;0.60;0.40;;;24.30;98.00;;;;;;5073936;28;20206;-79
2022/07/26 07:17:03;;;;;;;0.57;0.40;;;24.50;97.30;;;;;;5073862;28;20242;-79
2022/07/26 07:19:29;;;;;;;0.40;0.40;;;24.60;97.80;;;;;;5073150;28;20309;-79
2022/07/26 07:21:56;;;;;;;0.60;0.60;;;24.70;97.00;;;;;;5073585;28;20198;-78
2022/07/26 07:24:24;;;;;;;0.30;0.30;;;24.70;96.70;;;;;;5073763;28;20205;-79
2022/07/26 07:26:51;;;;;;;0.40;0.40;;;24.90;97.40;;;;;;5073469;28;20201;-79
2022/07/26 07:29:19;;;;;;;0.70;0.40;;;24.90;96.20;;;;;;5073613;28;20222;-79
2022/07/26 07:31:46;;;;;;;0.50;0.50;;;25.00;95.50;;;;;;5073612;28;20221;-79
2022/07/26 07:34:13;;;;;;;0.40;0.40;;;25.20;95.50;;;;;;5073657;28;20209;-79
2022/07/26 07:36:40;;;;;;;0.40;0.40;;;25.20;95.70;;;;;;5073589;28;20213;-79
2022/07/26 07:39:06;;;;;;;0.40;0.40;;;25.40;94.20;;;;;;5073550;28;20222;-79
2022/07/26 07:41:36;;;;;;;0.45;0.40;;;25.40;93.50;;;;;;5073130;28;20233;-79
2022/07/26 07:44:04;;;;;;;0.40;0.40;;;25.50;93.40;;;;;;5073535;28;20201;-79
2022/07/26 07:46:30;;;;;;;0.50;0.40;;;25.50;92.90;;;;;;5073510;28;20210;-79
2022/07/26 07:48:58;;;;;;;0.50;0.40;;;25.60;92.90;;;;;;5073381;28;20225;-79
2022/07/26 07:51:25;;;;;;;0.80;0.55;;;25.80;92.50;;;;;;5073426;28;20214;-79
2022/07/26 07:53:51;;;;;;;0.40;0.40;;;25.80;92.40;;;;;;5073446;28;20578;-79
2022/07/26 07:56:18;;;;;;;1.38;0.40;;;25.80;91.20;;;;;;5073447;28;20202;-79
2022/07/26 07:58:46;;;;;;;0.50;0.50;;;26.00;91.80;;;;;;5073276;28;20218;-79
2022/07/26 08:01:13;;;;;;;0.40;0.40;;;26.20;91.70;;;;;;5073388;28;20198;-79
2022/07/26 08:03:40;;;;;;;0.70;0.50;;;26.40;91.50;;;;;;5073302;28;20198;-79
2022/07/26 08:06:08;;;;;;;0.70;0.40;;;26.30;91.10;;;;;;5073330;28;20206;-79
2022/07/26 08:08:36;;;;;;;0.60;0.60;;;26.00;90.60;;;;;;5073229;28;20213;-79
2022/07/26 08:11:03;;;;;;;0.95;0.40;;;25.80;90.60;;;;;;5073195;28;20267;-79
2022/07/26 08:13:30;;;;;;;0.35;0.32;;;25.80;91.10;;;;;;5072921;28;20685;-79
2022/07/26 08:15:58;;;;;;;0.93;0.40;;;25.70;89.20;;;;;;5073214;28;20213;-79
2022/07/26 08:18:25;;;;;;;0.45;0.45;;;25.70;89.60;;;;;;5073688;28;20205;-79
2022/07/26 08:20:53;;;;;;;0.40;0.40;;;25.70;88.80;;;;;;5073184;28;20288;-79
2022/07/26 08:23:20;;;;;;;0.50;0.50;;;25.60;89.50;;;;;;5073148;28;20213;-79
2022/07/26 08:25:47;;;;;;;0.50;0.50;;;25.70;89.30;;;;;;5073086;28;20205;-79
2022/07/26 08:28:15;;;;;;;0.52;0.50;;;26.00;90.20;;;;;;5072760;28;20673;-79
2022/07/26 08:30:42;;;;;;;0.40;0.40;;;26.20;89.80;;;;;;5072955;28;20639;-79
2022/07/26 08:33:10;;;;;;;0.47;0.40;;;26.20;86.60;;;;;;5077036;28;20201;-79
2022/07/26 08:35:37;;;;;;;0.95;0.40;;;26.20;87.90;;;;;;5076651;28;20210;-79
2022/07/26 08:38:03;;;;;;;0.50;0.50;;;26.20;88.20;;;;;;5077060;28;20204;-79
2022/07/26 08:40:30;;;;;;;0.43;0.40;;;26.10;87.40;;;;;;5076565;28;20230;-79
2022/07/26 08:42:57;;;;;;;0.52;0.52;;;26.20;87.50;;;;;;5076532;28;20700;-78
2022/07/26 08:45:25;;;;;;;0.50;0.45;;;26.20;85.60;;;;;;5076781;28;20264;-79
2022/07/26 08:47:52;;;;;;;0.40;0.40;;;26.10;86.10;;;;;;5076793;28;20194;-79
2022/07/26 08:50:21;;;;;;;0.40;0.30;;;25.90;86.10;;;;;;5076462;28;20225;-79
2022/07/26 08:52:48;;;;;;;0.50;0.50;;;25.70;88.30;;;;;;5076607;28;20225;-79
2022/07/26 08:55:17;;;;;;;0.40;0.40;;;25.60;88.00;;;;;;5076397;28;20692;-79
2022/07/26 08:57:43;;;;;;;1.50;0.47;;;25.50;89.00;;;;;;5076825;28;20206;-79
2022/07/26 09:00:15;;;;;;;0.40;0.40;;;25.40;87.20;;;;;;5076435;28;20249;-79
2022/07/26 09:02:42;;;;;;;0.50;0.50;;;25.50;90.30;;;;;;5076465;28;20202;-79
2022/07/26 09:05:08;;;;;;;0.40;0.40;;;25.90;89.00;;;;;;5076437;28;20206;-79
2022/07/26 09:07:38;;;;;;;1.40;0.50;;;26.10;87.30;;;;;;5076395;28;20206;-79
2022/07/26 09:10:07;;;;;;;0.63;0.47;;;26.20;85.30;;;;;;5076382;28;20229;-79
2022/07/26 09:12:34;;;;;;;0.43;0.35;;;26.30;84.80;;;;;;5076221;28;20228;-79
2022/07/26 09:15:03;;;;;;;0.47;0.40;;;26.20;84.60;;;;;;5076252;28;20205;-79
2022/07/26 09:17:39;;;;;;;0.50;0.40;;;26.20;85.10;;;;;;5076145;28;20202;-79
2022/07/26 09:20:09;;;;;;;0.47;0.47;;;26.10;84.60;;;;;;5076116;28;20226;-79
2022/07/26 09:22:37;;;;;;;0.50;0.40;;;26.30;85.40;;;;;;5076126;28;20688;-79
2022/07/26 09:25:20;;;;;;;0.50;0.50;;;26.60;83.80;;;;;;5076315;28;20201;-80
2022/07/26 09:27:47;;;;;;;0.68;0.50;;;26.70;84.90;;;;;;5075752;28;20539;-79
2022/07/26 09:30:14;;;;;;;0.50;0.50;;;26.90;84.00;;;;;;5075901;28;20565;-80
2022/07/26 09:32:54;;;;;;;0.50;0.32;;;27.20;82.60;;;;;;5075901;28;20227;-79
2022/07/26 09:35:21;;;;;;;0.40;0.40;;;27.20;82.10;;;;;;5076431;28;20189;-79
2022/07/26 09:37:49;;;;;;;0.75;0.40;;;27.10;80.70;;;;;;5075519;28;20569;-79
2022/07/26 09:40:18;;;;;;;0.40;0.40;;;26.80;80.00;;;;;;5075519;28;20246;-80
2022/07/26 09:42:57;;;;;;;0.40;0.40;;;26.60;79.50;;;;;;5074762;28;20227;-80
2022/07/26 09:45:24;;;;;;;0.55;0.40;;;26.60;81.30;;;;;;5075742;28;20194;-79
2022/07/26 09:47:51;;;;;;;0.40;0.40;;;26.70;79.60;;;;;;5075666;28;20205;-80
2022/07/26 09:50:21;;;;;;;0.40;0.40;;;26.70;81.70;;;;;;5075243;28;20604;-80
2022/07/26 09:53:00;;;;;;;0.40;0.30;;;26.50;80.00;;;;;;5075512;28;20213;-80
2022/07/26 09:55:27;;;;;;;0.40;0.40;;;26.40;78.30;;;;;;5075554;28;20243;-80
2022/07/26 09:57:54;;;;;;;1.15;0.45;;;26.30;80.80;;;;;;5075479;28;20206;-80
2022/07/26 10:00:24;;;;;;;0.40;0.38;;;26.40;80.90;;;;;;5075348;28;20225;-80
2022/07/26 10:02:51;;;;;;;0.40;0.40;;;26.60;79.20;;;;;;5075066;28;20665;-80
2022/07/26 10:05:20;;;;;;;0.57;0.50;;;26.70;78.60;;;;;;5075313;28;20208;-79
2022/07/26 10:07:47;;;;;;;0.47;0.47;;;27.00;78.80;;;;;;5074944;28;20248;-79
2022/07/26 10:10:20;;;;;;;0.40;0.30;;;27.20;76.80;;;;;;5075173;28;20226;-80
2022/07/26 10:12:50;;;;;;;0.40;0.40;;;27.60;76.70;;;;;;5075108;28;20213;-80
2022/07/26 10:15:37;;;;;;;0.40;0.40;;;27.70;77.60;;;;;;5075216;28;20194;-82
2022/07/26 10:18:07;;;;;;;0.50;0.50;;;27.50;76.00;;;;;;5074818;28;20692;-82
2022/07/26 10:20:54;;;;;;;0.60;0.40;;;27.10;77.00;;;;;;5074980;28;20221;-82
2022/07/26 10:23:44;;;;;;;1.20;0.40;;;27.00;78.00;;;;;;5074772;28;20189;-82
2022/07/26 10:26:37;;;;;;;0.50;0.32;;;26.80;77.10;;;;;;5074964;28;20225;-82
2022/07/26 10:29:22;;;;;;;0.40;0.40;;;26.60;78.00;;;;;;5074801;28;20230;-82
2022/07/26 10:31:50;;;;;;;5.63;0.40;;;26.70;77.80;;;;;;5074442;28;20720;-82
2022/07/26 10:34:31;;;;;;;0.60;0.60;;;26.60;76.40;;;;;;5074441;28;20206;-82
2022/07/26 10:36:59;;;;;;;0.85;0.60;;;26.60;76.90;;;;;;5074768;28;20233;-82
2022/07/26 10:39:26;;;;;;;0.40;0.40;;;26.60;75.80;;;;;;5074339;28;20720;-82
2022/07/26 10:42:00;;;;;;;0.43;0.40;;;26.80;77.20;;;;;;5074407;28;20262;-82
2022/07/26 10:44:30;;;;;;;0.40;0.40;;;26.90;77.60;;;;;;5074603;28;20625;-82
2022/07/26 10:47:00;;;;;;;0.57;0.40;;;27.00;76.60;;;;;;5074515;28;20205;-82
2022/07/26 10:49:33;;;;;;;1.98;1.48;;;27.00;77.30;;;;;;5074403;28;20256;-82
2022/07/26 10:52:15;;;;;;;0.50;0.50;;;26.90;76.40;;;;;;5073972;28;20218;-81
2022/07/26 10:55:08;;;;;;;1.27;0.50;;;27.00;75.60;;;;;;5074204;28;20205;-82
2022/07/26 10:57:38;;;;;;;0.45;0.40;;;27.30;73.70;;;;;;5067838;28;20577;-82
2022/07/26 11:00:11;;;;;;;0.40;0.40;;;27.30;73.30;;;;;;5074604;28;20225;-81
2022/07/26 11:02:38;;;;;;;0.40;0.40;;;27.40;74.90;;;;;;5074051;28;20551;-81
2022/07/26 11:05:12;;;;;;;0.57;0.50;;;27.50;73.70;;;;;;5074106;28;20209;-81
2022/07/26 11:08:00;;;;;;;0.40;0.40;;;27.90;74.40;;;;;;5074126;28;20210;-81
2022/07/26 11:10:29;;;;;;;0.40;0.40;;;28.10;71.20;;;;;;5074017;28;20280;-82
2022/07/26 11:13:02;;;;;;;2.35;0.30;;;28.40;70.40;;;;;;5073894;28;20313;-83
2022/07/26 11:15:29;;;;;;;0.40;0.30;;;29.00;70.60;;;;;;5073987;28;20193;-82
2022/07/26 11:18:21;;;;;;;0.40;0.40;;;29.00;68.80;;;;;;5074077;28;20198;-83
2022/07/26 11:20:50;;;;;;;0.50;0.50;;;28.70;68.90;;;;;;5073892;28;20191;-83
2022/07/26 11:23:28;;;;;;;0.50;0.50;;;28.30;69.20;;;;;;5073901;28;20201;-83
2022/07/26 11:26:12;;;;;;;0.30;0.30;;;27.80;70.50;;;;;;5073819;28;20186;-82
2022/07/26 11:28:53;;;;;;;0.40;0.40;;;27.40;70.40;;;;;;5073724;28;20225;-83
2022/07/26 11:31:22;;;;;;;0.40;0.40;;;27.30;73.70;;;;;;5073929;28;20245;-82
2022/07/26 11:33:50;;;;;;;0.77;0.50;;;27.40;72.20;;;;;;5073946;28;20326;-83
2022/07/26 11:36:18;;;;;;;0.30;0.30;;;27.40;72.50;;;;;;5073672;28;20208;-83
2022/07/26 11:38:50;;;;;;;0.50;0.40;;;27.40;72.00;;;;;;5073723;28;20234;-82
2022/07/26 11:41:21;;;;;;;0.40;0.32;;;27.50;72.60;;;;;;5073505;28;20234;-82
2022/07/26 11:43:48;;;;;;;0.40;0.40;;;27.50;70.30;;;;;;5073615;28;20189;-82
2022/07/26 11:46:17;;;;;;;0.40;0.40;;;27.40;70.90;;;;;;5073563;28;20629;-82
2022/07/26 11:48:48;;;;;;;0.60;0.40;;;27.10;71.80;;;;;;5073447;28;20232;-82
2022/07/26 11:51:16;;;;;;;0.50;0.50;;;27.00;72.70;;;;;;5073414;28;20206;-83
2022/07/26 11:53:43;;;;;;;0.45;0.45;;;27.00;72.70;;;;;;5073483;28;20206;-83
2022/07/26 11:56:15;;;;;;;0.50;0.30;;;27.10;72.10;;;;;;5073073;28;20548;-82
2022/07/26 11:58:44;;;;;;;0.40;0.40;;;27.00;71.50;;;;;;5073337;28;20228;-83
2022/07/26 12:01:13;;;;;;;0.40;0.30;;;26.90;69.00;;;;;;5073377;28;20576;-83
2022/07/26 12:03:43;;;;;;;0.60;0.40;;;26.70;71.20;;;;;;5073332;28;20213;-83
2022/07/26 12:06:12;;;;;;;2.60;0.47;;;26.60;71.20;;;;;;5072719;28;20202;-82
2022/07/26 12:08:43;;;;;;;0.60;0.50;;;26.40;72.00;;;;;;5072987;28;20236;-83
2022/07/26 12:11:10;;;;;;;0.50;0.45;;;26.20;71.50;;;;;;5073248;28;20196;-83
2022/07/26 12:13:52;;;;;;;0.40;0.40;;;26.10;71.50;;;;;;5073016;28;20605;-82
2022/07/26 12:16:46;;;;;;;0.40;0.30;;;26.00;74.50;;;;;;5073258;28;20209;-83
2022/07/26 12:19:26;;;;;;;0.47;0.30;;;26.00;73.40;;;;;;5037382;28;20225;-83
2022/07/26 12:21:55;;;;;;;0.40;0.40;;;26.00;73.40;;;;;;5073244;28;20182;-83
2022/07/26 12:24:43;;;;;;;0.80;0.40;;;26.10;73.10;;;;;;5073165;28;20198;-83
2022/07/26 12:27:13;;;;;;;0.40;0.40;;;26.20;73.00;;;;;;5072831;28;20198;-83
2022/07/26 12:29:42;;;;;;;0.40;0.40;;;26.30;71.00;;;;;;5073099;28;20230;-83
2022/07/26 12:32:11;;;;;;;1.30;0.40;;;26.40;71.20;;;;;;5072987;28;20226;-83
2022/07/26 12:34:42;;;;;;;0.40;0.38;;;26.40;68.80;;;;;;5074155;28;20202;-83
2022/07/26 12:37:11;;;;;;;0.40;0.40;;;26.50;70.70;;;;;;5073074;28;20609;-83
2022/07/26 12:39:38;;;;;;;0.40;0.40;;;26.50;70.00;;;;;;5072652;28;20222;-83
2022/07/26 12:42:21;;;;;;;0.50;0.40;;;26.50;71.40;;;;;;5072571;28;20226;-83
2022/07/26 12:44:48;;;;;;;0.40;0.40;;;26.30;69.00;;;;;;5072691;28;20715;-83
2022/07/26 12:47:14;;;;;;;0.40;0.40;;;26.20;69.40;;;;;;5072978;28;20575;-83
2022/07/26 12:49:45;;;;;;;0.50;0.38;;;26.00;70.50;;;;;;5072828;28;20229;-83
2022/07/26 12:52:12;;;;;;;0.40;0.32;;;25.90;72.30;;;;;;5072808;28;20301;-83
2022/07/26 12:54:39;;;;;;;0.40;0.40;;;25.70;71.60;;;;;;5072851;28;20202;-83
2022/07/26 12:57:06;;;;;;;0.73;0.40;;;25.70;72.00;;;;;;5072830;28;20202;-83
2022/07/26 12:59:32;;;;;;;0.40;0.40;;;25.70;72.10;;;;;;5072759;28;20226;-83